sensor_id;sensor_type;location;lat;lon;timestamp;pressure;altitude;pressure_sealevel;temperature
66403;BMP180;53212;52.112;5.144;2023-09-19T00:00:30;100673.20;;;14.60
66403;BMP180;53212;52.112;5.144;2023-09-19T00:02:57;100671.80;;;14.70
66403;BMP180;53212;52.112;5.144;2023-09-19T00:05:28;100678.00;;;14.60
66403;BMP180;53212;52.112;5.144;2023-09-19T00:07:56;100684.20;;;14.62
66403;BMP180;53212;52.112;5.144;2023-09-19T00:10:34;100688.40;;;14.70
66403;BMP180;53212;52.112;5.144;2023-09-19T00:13:04;100688.60;;;14.70
66403;BMP180;53212;52.112;5.144;2023-09-19T00:15:39;100690.80;;;14.70
66403;BMP180;53212;52.112;5.144;2023-09-19T00:18:06;100687.60;;;14.74
66403;BMP180;53212;52.112;5.144;2023-09-19T00:20:32;100687.00;;;14.80
66403;BMP180;53212;52.112;5.144;2023-09-19T00:23:00;100688.00;;;14.80
66403;BMP180;53212;52.112;5.144;2023-09-19T00:25:28;100686.20;;;14.80
66403;BMP180;53212;52.112;5.144;2023-09-19T00:27:54;100690.60;;;14.90
66403;BMP180;53212;52.112;5.144;2023-09-19T00:30:19;100693.60;;;14.80
66403;BMP180;53212;52.112;5.144;2023-09-19T00:32:49;100689.80;;;14.88
66403;BMP180;53212;52.112;5.144;2023-09-19T00:35:17;100690.60;;;14.90
66403;BMP180;53212;52.112;5.144;2023-09-19T00:37:43;100692.00;;;14.90
66403;BMP180;53212;52.112;5.144;2023-09-19T00:40:10;100703.00;;;14.90
66403;BMP180;53212;52.112;5.144;2023-09-19T00:42:50;100700.80;;;14.90
66403;BMP180;53212;52.112;5.144;2023-09-19T00:45:17;100698.20;;;14.90
66403;BMP180;53212;52.112;5.144;2023-09-19T00:47:51;100700.40;;;14.84
66403;BMP180;53212;52.112;5.144;2023-09-19T00:50:19;100697.60;;;14.90
66403;BMP180;53212;52.112;5.144;2023-09-19T00:52:48;100703.20;;;14.90
66403;BMP180;53212;52.112;5.144;2023-09-19T00:55:15;100706.80;;;14.90
66403;BMP180;53212;52.112;5.144;2023-09-19T00:57:42;100714.00;;;14.80
66403;BMP180;53212;52.112;5.144;2023-09-19T01:00:10;100712.20;;;14.80
66403;BMP180;53212;52.112;5.144;2023-09-19T01:02:42;100716.20;;;14.80
66403;BMP180;53212;52.112;5.144;2023-09-19T01:05:11;100717.60;;;14.80
66403;BMP180;53212;52.112;5.144;2023-09-19T01:07:40;100712.40;;;14.80
66403;BMP180;53212;52.112;5.144;2023-09-19T01:10:08;100716.40;;;14.80
66403;BMP180;53212;52.112;5.144;2023-09-19T01:18:40;100714.20;;;14.70
66403;BMP180;53212;52.112;5.144;2023-09-19T01:21:28;100713.20;;;14.74
66403;BMP180;53212;52.112;5.144;2023-09-19T01:24:22;100715.20;;;14.70
66403;BMP180;53212;52.112;5.144;2023-09-19T01:29:49;100718.20;;;14.60
66403;BMP180;53212;52.112;5.144;2023-09-19T01:32:21;100718.80;;;14.60
66403;BMP180;53212;52.112;5.144;2023-09-19T01:34:56;100719.40;;;14.60
66403;BMP180;53212;52.112;5.144;2023-09-19T01:37:31;100721.20;;;14.60
66403;BMP180;53212;52.112;5.144;2023-09-19T01:48:59;100737.00;;;14.50
66403;BMP180;53212;52.112;5.144;2023-09-19T01:51:37;100736.00;;;14.50
66403;BMP180;53212;52.112;5.144;2023-09-19T01:54:16;100732.80;;;14.50
66403;BMP180;53212;52.112;5.144;2023-09-19T01:56:59;100732.40;;;14.50
66403;BMP180;53212;52.112;5.144;2023-09-19T01:59:36;100731.00;;;14.48
66403;BMP180;53212;52.112;5.144;2023-09-19T02:02:04;100729.20;;;14.50
66403;BMP180;53212;52.112;5.144;2023-09-19T02:04:33;100731.40;;;14.50
66403;BMP180;53212;52.112;5.144;2023-09-19T02:07:00;100727.40;;;14.44
66403;BMP180;53212;52.112;5.144;2023-09-19T02:09:26;100723.20;;;14.42
66403;BMP180;53212;52.112;5.144;2023-09-19T02:11:52;100721.80;;;14.44
66403;BMP180;53212;52.112;5.144;2023-09-19T02:14:17;100726.20;;;14.44
66403;BMP180;53212;52.112;5.144;2023-09-19T02:16:45;100726.40;;;14.50
66403;BMP180;53212;52.112;5.144;2023-09-19T02:19:11;100720.80;;;14.50
66403;BMP180;53212;52.112;5.144;2023-09-19T02:21:36;100732.00;;;14.50
66403;BMP180;53212;52.112;5.144;2023-09-19T02:24:02;100728.60;;;14.50
66403;BMP180;53212;52.112;5.144;2023-09-19T02:26:28;100732.00;;;14.50
66403;BMP180;53212;52.112;5.144;2023-09-19T02:28:53;100736.40;;;14.50
66403;BMP180;53212;52.112;5.144;2023-09-19T02:31:19;100732.80;;;14.50
66403;BMP180;53212;52.112;5.144;2023-09-19T02:33:44;100732.80;;;14.50
66403;BMP180;53212;52.112;5.144;2023-09-19T02:36:11;100731.80;;;14.46
66403;BMP180;53212;52.112;5.144;2023-09-19T02:38:37;100730.60;;;14.40
66403;BMP180;53212;52.112;5.144;2023-09-19T02:41:02;100731.80;;;14.40
66403;BMP180;53212;52.112;5.144;2023-09-19T02:43:28;100729.40;;;14.40
66403;BMP180;53212;52.112;5.144;2023-09-19T02:45:54;100740.40;;;14.36
66403;BMP180;53212;52.112;5.144;2023-09-19T02:48:20;100734.40;;;14.30
66403;BMP180;53212;52.112;5.144;2023-09-19T02:50:49;100741.80;;;14.30
66403;BMP180;53212;52.112;5.144;2023-09-19T02:53:15;100744.60;;;14.30
66403;BMP180;53212;52.112;5.144;2023-09-19T02:55:41;100747.40;;;14.30
66403;BMP180;53212;52.112;5.144;2023-09-19T02:58:07;100753.60;;;14.30
66403;BMP180;53212;52.112;5.144;2023-09-19T03:00:39;100750.60;;;14.30
66403;BMP180;53212;52.112;5.144;2023-09-19T03:03:07;100751.20;;;14.24
66403;BMP180;53212;52.112;5.144;2023-09-19T03:05:34;100745.60;;;14.20
66403;BMP180;53212;52.112;5.144;2023-09-19T03:08:00;100745.20;;;14.20
66403;BMP180;53212;52.112;5.144;2023-09-19T03:10:26;100744.20;;;14.20
66403;BMP180;53212;52.112;5.144;2023-09-19T03:12:53;100745.20;;;14.14
66403;BMP180;53212;52.112;5.144;2023-09-19T03:15:19;100743.80;;;14.10
66403;BMP180;53212;52.112;5.144;2023-09-19T03:17:47;100737.60;;;14.10
66403;BMP180;53212;52.112;5.144;2023-09-19T03:20:14;100738.00;;;14.10
66403;BMP180;53212;52.112;5.144;2023-09-19T03:22:43;100740.40;;;14.10
66403;BMP180;53212;52.112;5.144;2023-09-19T03:25:09;100744.60;;;14.06
66403;BMP180;53212;52.112;5.144;2023-09-19T03:27:37;100743.80;;;14.00
66403;BMP180;53212;52.112;5.144;2023-09-19T03:30:04;100738.60;;;14.00
66403;BMP180;53212;52.112;5.144;2023-09-19T03:32:34;100740.80;;;14.00
66403;BMP180;53212;52.112;5.144;2023-09-19T03:35:00;100735.40;;;13.90
66403;BMP180;53212;52.112;5.144;2023-09-19T03:37:25;100736.80;;;13.90
66403;BMP180;53212;52.112;5.144;2023-09-19T03:39:51;100735.80;;;13.90
66403;BMP180;53212;52.112;5.144;2023-09-19T03:42:17;100734.40;;;13.90
66403;BMP180;53212;52.112;5.144;2023-09-19T03:44:42;100733.20;;;13.90
66403;BMP180;53212;52.112;5.144;2023-09-19T03:47:08;100733.80;;;13.90
66403;BMP180;53212;52.112;5.144;2023-09-19T03:49:33;100734.20;;;13.90
66403;BMP180;53212;52.112;5.144;2023-09-19T03:51:59;100736.20;;;13.90
66403;BMP180;53212;52.112;5.144;2023-09-19T03:54:25;100732.80;;;13.90
66403;BMP180;53212;52.112;5.144;2023-09-19T03:56:50;100734.00;;;13.80
66403;BMP180;53212;52.112;5.144;2023-09-19T03:59:16;100744.00;;;13.80
66403;BMP180;53212;52.112;5.144;2023-09-19T04:01:43;100753.20;;;13.80
66403;BMP180;53212;52.112;5.144;2023-09-19T04:04:09;100749.80;;;13.80
66403;BMP180;53212;52.112;5.144;2023-09-19T04:06:35;100755.40;;;13.80
66403;BMP180;53212;52.112;5.144;2023-09-19T04:09:02;100756.80;;;13.80
66403;BMP180;53212;52.112;5.144;2023-09-19T04:11:29;100761.20;;;13.80
66403;BMP180;53212;52.112;5.144;2023-09-19T04:13:56;100764.40;;;13.80
66403;BMP180;53212;52.112;5.144;2023-09-19T04:16:21;100767.00;;;13.80
66403;BMP180;53212;52.112;5.144;2023-09-19T04:18:47;100773.20;;;13.88
66403;BMP180;53212;52.112;5.144;2023-09-19T04:21:13;100773.20;;;13.90
66403;BMP180;53212;52.112;5.144;2023-09-19T04:23:39;100779.00;;;13.88
66403;BMP180;53212;52.112;5.144;2023-09-19T04:26:04;100778.60;;;13.80
66403;BMP180;53212;52.112;5.144;2023-09-19T04:28:31;100785.20;;;13.80
66403;BMP180;53212;52.112;5.144;2023-09-19T04:30:57;100784.00;;;13.80
66403;BMP180;53212;52.112;5.144;2023-09-19T04:33:25;100789.60;;;13.70
66403;BMP180;53212;52.112;5.144;2023-09-19T04:35:52;100787.00;;;13.70
66403;BMP180;53212;52.112;5.144;2023-09-19T04:38:21;100787.20;;;13.60
66403;BMP180;53212;52.112;5.144;2023-09-19T04:40:47;100786.20;;;13.60
66403;BMP180;53212;52.112;5.144;2023-09-19T04:43:13;100791.80;;;13.60
66403;BMP180;53212;52.112;5.144;2023-09-19T04:45:39;100794.80;;;13.60
66403;BMP180;53212;52.112;5.144;2023-09-19T04:48:07;100792.00;;;13.60
66403;BMP180;53212;52.112;5.144;2023-09-19T04:50:33;100790.20;;;13.60
66403;BMP180;53212;52.112;5.144;2023-09-19T04:53:00;100794.60;;;13.60
66403;BMP180;53212;52.112;5.144;2023-09-19T04:55:26;100788.40;;;13.60
66403;BMP180;53212;52.112;5.144;2023-09-19T04:57:53;100782.80;;;13.60
66403;BMP180;53212;52.112;5.144;2023-09-19T05:00:23;100780.40;;;13.60
66403;BMP180;53212;52.112;5.144;2023-09-19T05:02:55;100786.00;;;13.60
66403;BMP180;53212;52.112;5.144;2023-09-19T05:05:22;100793.60;;;13.60
66403;BMP180;53212;52.112;5.144;2023-09-19T05:07:49;100795.20;;;13.60
66403;BMP180;53212;52.112;5.144;2023-09-19T05:10:16;100795.00;;;13.60
66403;BMP180;53212;52.112;5.144;2023-09-19T05:12:43;100797.80;;;13.60
66403;BMP180;53212;52.112;5.144;2023-09-19T05:15:11;100797.40;;;13.58
66403;BMP180;53212;52.112;5.144;2023-09-19T05:17:36;100795.40;;;13.52
66403;BMP180;53212;52.112;5.144;2023-09-19T05:20:02;100801.00;;;13.50
66403;BMP180;53212;52.112;5.144;2023-09-19T05:22:31;100797.00;;;13.58
66403;BMP180;53212;52.112;5.144;2023-09-19T05:24:58;100800.60;;;13.60
66403;BMP180;53212;52.112;5.144;2023-09-19T05:27:24;100795.40;;;13.60
66403;BMP180;53212;52.112;5.144;2023-09-19T05:29:49;100795.40;;;13.60
66403;BMP180;53212;52.112;5.144;2023-09-19T05:32:17;100798.00;;;13.60
66403;BMP180;53212;52.112;5.144;2023-09-19T05:34:45;100796.60;;;13.60
66403;BMP180;53212;52.112;5.144;2023-09-19T05:37:12;100795.40;;;13.58
66403;BMP180;53212;52.112;5.144;2023-09-19T05:39:38;100801.00;;;13.60
66403;BMP180;53212;52.112;5.144;2023-09-19T05:42:04;100801.20;;;13.60
66403;BMP180;53212;52.112;5.144;2023-09-19T05:44:29;100800.00;;;13.70
66403;BMP180;53212;52.112;5.144;2023-09-19T05:46:55;100801.40;;;13.70
66403;BMP180;53212;52.112;5.144;2023-09-19T05:49:22;100800.60;;;13.80
66403;BMP180;53212;52.112;5.144;2023-09-19T05:51:47;100799.80;;;13.80
66403;BMP180;53212;52.112;5.144;2023-09-19T05:54:13;100810.60;;;13.86
66403;BMP180;53212;52.112;5.144;2023-09-19T05:56:38;100808.00;;;13.90
66403;BMP180;53212;52.112;5.144;2023-09-19T05:59:04;100816.20;;;13.96
66403;BMP180;53212;52.112;5.144;2023-09-19T06:01:30;100819.80;;;14.00
66403;BMP180;53212;52.112;5.144;2023-09-19T06:03:58;100816.80;;;14.00
66403;BMP180;53212;52.112;5.144;2023-09-19T06:06:26;100821.00;;;14.10
66403;BMP180;53212;52.112;5.144;2023-09-19T06:08:51;100822.40;;;14.10
66403;BMP180;53212;52.112;5.144;2023-09-19T06:11:17;100822.20;;;14.20
66403;BMP180;53212;52.112;5.144;2023-09-19T06:13:46;100826.40;;;14.30
66403;BMP180;53212;52.112;5.144;2023-09-19T06:16:13;100830.00;;;14.30
66403;BMP180;53212;52.112;5.144;2023-09-19T06:18:38;100826.00;;;14.40
66403;BMP180;53212;52.112;5.144;2023-09-19T06:21:04;100826.00;;;14.40
66403;BMP180;53212;52.112;5.144;2023-09-19T06:23:34;100827.60;;;14.50
66403;BMP180;53212;52.112;5.144;2023-09-19T06:26:00;100829.00;;;14.50
66403;BMP180;53212;52.112;5.144;2023-09-19T06:28:26;100827.60;;;14.60
66403;BMP180;53212;52.112;5.144;2023-09-19T06:30:56;100828.20;;;14.66
66403;BMP180;53212;52.112;5.144;2023-09-19T06:33:22;100826.80;;;14.70
66403;BMP180;53212;52.112;5.144;2023-09-19T06:35:48;100821.80;;;14.80
66403;BMP180;53212;52.112;5.144;2023-09-19T06:38:13;100824.20;;;14.80
66403;BMP180;53212;52.112;5.144;2023-09-19T06:40:40;100823.40;;;14.88
66403;BMP180;53212;52.112;5.144;2023-09-19T06:43:10;100823.40;;;14.90
66403;BMP180;53212;52.112;5.144;2023-09-19T06:45:35;100825.40;;;15.00
66403;BMP180;53212;52.112;5.144;2023-09-19T06:48:01;100827.20;;;15.00
66403;BMP180;53212;52.112;5.144;2023-09-19T06:50:28;100828.00;;;15.10
66403;BMP180;53212;52.112;5.144;2023-09-19T06:52:57;100829.60;;;15.10
66403;BMP180;53212;52.112;5.144;2023-09-19T06:55:25;100830.00;;;15.20
66403;BMP180;53212;52.112;5.144;2023-09-19T06:57:54;100837.60;;;15.30
66403;BMP180;53212;52.112;5.144;2023-09-19T07:00:19;100821.80;;;15.30
66403;BMP180;53212;52.112;5.144;2023-09-19T07:03:15;100831.80;;;15.30
66403;BMP180;53212;52.112;5.144;2023-09-19T07:05:48;100834.40;;;15.40
66403;BMP180;53212;52.112;5.144;2023-09-19T07:08:14;100832.00;;;15.46
66403;BMP180;53212;52.112;5.144;2023-09-19T07:10:42;100832.60;;;15.50
66403;BMP180;53212;52.112;5.144;2023-09-19T07:13:14;100832.00;;;15.60
66403;BMP180;53212;52.112;5.144;2023-09-19T07:15:43;100832.00;;;15.60
66403;BMP180;53212;52.112;5.144;2023-09-19T07:18:14;100836.40;;;15.60
66403;BMP180;53212;52.112;5.144;2023-09-19T07:20:40;100842.60;;;15.60
66403;BMP180;53212;52.112;5.144;2023-09-19T07:23:11;100844.60;;;15.70
66403;BMP180;53212;52.112;5.144;2023-09-19T07:25:39;100849.80;;;15.70
66403;BMP180;53212;52.112;5.144;2023-09-19T07:28:05;100851.40;;;15.70
66403;BMP180;53212;52.112;5.144;2023-09-19T07:30:30;100857.80;;;15.70
66403;BMP180;53212;52.112;5.144;2023-09-19T07:32:56;100854.80;;;15.80
66403;BMP180;53212;52.112;5.144;2023-09-19T07:35:22;100860.40;;;15.80
66403;BMP180;53212;52.112;5.144;2023-09-19T07:37:49;100856.60;;;15.80
66403;BMP180;53212;52.112;5.144;2023-09-19T07:40:16;100850.40;;;15.80
66403;BMP180;53212;52.112;5.144;2023-09-19T07:42:42;100854.80;;;15.90
66403;BMP180;53212;52.112;5.144;2023-09-19T07:45:10;100859.20;;;15.90
66403;BMP180;53212;52.112;5.144;2023-09-19T07:47:44;100851.40;;;15.90
66403;BMP180;53212;52.112;5.144;2023-09-19T07:50:09;100861.80;;;16.00
66403;BMP180;53212;52.112;5.144;2023-09-19T07:52:36;100860.20;;;16.00
66403;BMP180;53212;52.112;5.144;2023-09-19T07:55:06;100863.60;;;16.00
66403;BMP180;53212;52.112;5.144;2023-09-19T07:57:36;100868.00;;;16.02
66403;BMP180;53212;52.112;5.144;2023-09-19T08:00:03;100865.20;;;16.10
66403;BMP180;53212;52.112;5.144;2023-09-19T08:02:35;100867.40;;;16.22
66403;BMP180;53212;52.112;5.144;2023-09-19T08:05:00;100861.00;;;16.30
66403;BMP180;53212;52.112;5.144;2023-09-19T08:07:26;100862.80;;;16.40
66403;BMP180;53212;52.112;5.144;2023-09-19T08:09:51;100868.60;;;16.52
66403;BMP180;53212;52.112;5.144;2023-09-19T08:12:16;100868.80;;;16.60
66403;BMP180;53212;52.112;5.144;2023-09-19T08:14:42;100868.00;;;16.70
66403;BMP180;53212;52.112;5.144;2023-09-19T08:17:08;100867.00;;;16.80
66403;BMP180;53212;52.112;5.144;2023-09-19T08:19:34;100860.80;;;16.80
66403;BMP180;53212;52.112;5.144;2023-09-19T08:22:00;100865.00;;;16.92
66403;BMP180;53212;52.112;5.144;2023-09-19T08:24:27;100868.00;;;17.10
66403;BMP180;53212;52.112;5.144;2023-09-19T08:26:54;100862.40;;;17.16
66403;BMP180;53212;52.112;5.144;2023-09-19T08:29:20;100857.20;;;17.20
66403;BMP180;53212;52.112;5.144;2023-09-19T08:31:46;100857.80;;;17.20
66403;BMP180;53212;52.112;5.144;2023-09-19T08:34:15;100857.40;;;17.20
66403;BMP180;53212;52.112;5.144;2023-09-19T08:36:41;100857.00;;;17.30
66403;BMP180;53212;52.112;5.144;2023-09-19T08:39:08;100860.20;;;17.30
66403;BMP180;53212;52.112;5.144;2023-09-19T08:41:34;100848.80;;;17.40
66403;BMP180;53212;52.112;5.144;2023-09-19T08:44:00;100855.80;;;17.40
66403;BMP180;53212;52.112;5.144;2023-09-19T08:46:30;100850.40;;;17.40
66403;BMP180;53212;52.112;5.144;2023-09-19T08:49:05;100853.00;;;17.40
66403;BMP180;53212;52.112;5.144;2023-09-19T08:51:45;100853.20;;;17.50
66403;BMP180;53212;52.112;5.144;2023-09-19T08:54:25;100858.00;;;17.56
66403;BMP180;53212;52.112;5.144;2023-09-19T08:56:54;100850.80;;;17.62
66403;BMP180;53212;52.112;5.144;2023-09-19T08:59:24;100857.40;;;17.70
66403;BMP180;53212;52.112;5.144;2023-09-19T09:01:51;100869.60;;;17.70
66403;BMP180;53212;52.112;5.144;2023-09-19T09:04:20;100849.60;;;17.80
66403;BMP180;53212;52.112;5.144;2023-09-19T09:06:46;100854.40;;;17.90
66403;BMP180;53212;52.112;5.144;2023-09-19T09:09:18;100856.80;;;18.00
66403;BMP180;53212;52.112;5.144;2023-09-19T09:11:43;100857.20;;;18.12
66403;BMP180;53212;52.112;5.144;2023-09-19T09:14:09;100855.20;;;18.40
66403;BMP180;53212;52.112;5.144;2023-09-19T09:16:36;100844.20;;;18.50
66403;BMP180;53212;52.112;5.144;2023-09-19T09:19:02;100851.80;;;18.60
66403;BMP180;53212;52.112;5.144;2023-09-19T09:21:28;100842.80;;;18.70
66403;BMP180;53212;52.112;5.144;2023-09-19T09:23:54;100837.00;;;18.80
66403;BMP180;53212;52.112;5.144;2023-09-19T09:29:04;100842.80;;;19.00
66403;BMP180;53212;52.112;5.144;2023-09-19T09:31:29;100845.80;;;19.10
66403;BMP180;53212;52.112;5.144;2023-09-19T09:33:56;100833.60;;;19.20
66403;BMP180;53212;52.112;5.144;2023-09-19T09:36:39;100849.00;;;19.30
66403;BMP180;53212;52.112;5.144;2023-09-19T09:39:07;100825.40;;;19.24
66403;BMP180;53212;52.112;5.144;2023-09-19T09:41:50;100831.80;;;19.40
66403;BMP180;53212;52.112;5.144;2023-09-19T09:44:17;100816.20;;;19.50
66403;BMP180;53212;52.112;5.144;2023-09-19T09:46:46;100821.40;;;19.54
66403;BMP180;53212;52.112;5.144;2023-09-19T09:49:22;100831.80;;;19.60
66403;BMP180;53212;52.112;5.144;2023-09-19T09:52:06;100827.80;;;19.70
66403;BMP180;53212;52.112;5.144;2023-09-19T09:54:34;100829.60;;;19.68
66403;BMP180;53212;52.112;5.144;2023-09-19T09:57:08;100844.40;;;19.60
66403;BMP180;53212;52.112;5.144;2023-09-19T09:59:56;100831.60;;;19.66
66403;BMP180;53212;52.112;5.144;2023-09-19T10:02:37;100839.40;;;19.80
66403;BMP180;53212;52.112;5.144;2023-09-19T10:05:14;100844.00;;;19.70
66403;BMP180;53212;52.112;5.144;2023-09-19T10:07:53;100838.60;;;19.70
66403;BMP180;53212;52.112;5.144;2023-09-19T10:10:36;100840.60;;;19.60
66403;BMP180;53212;52.112;5.144;2023-09-19T10:13:10;100848.00;;;19.70
66403;BMP180;53212;52.112;5.144;2023-09-19T10:15:48;100838.40;;;19.72
66403;BMP180;53212;52.112;5.144;2023-09-19T10:18:25;100826.60;;;19.60
66403;BMP180;53212;52.112;5.144;2023-09-19T10:20:53;100836.00;;;19.60
66403;BMP180;53212;52.112;5.144;2023-09-19T10:23:21;100820.80;;;19.70
66403;BMP180;53212;52.112;5.144;2023-09-19T10:25:50;100817.40;;;19.60
66403;BMP180;53212;52.112;5.144;2023-09-19T10:28:19;100817.60;;;19.50
66403;BMP180;53212;52.112;5.144;2023-09-19T10:30:49;100802.60;;;19.40
66403;BMP180;53212;52.112;5.144;2023-09-19T10:33:21;100797.60;;;19.56
66403;BMP180;53212;52.112;5.144;2023-09-19T10:35:49;100799.80;;;19.70
66403;BMP180;53212;52.112;5.144;2023-09-19T10:38:23;100800.40;;;19.80
66403;BMP180;53212;52.112;5.144;2023-09-19T10:40:52;100799.00;;;19.90
66403;BMP180;53212;52.112;5.144;2023-09-19T10:43:20;100798.80;;;20.10
66403;BMP180;53212;52.112;5.144;2023-09-19T10:45:48;100796.20;;;20.30
66403;BMP180;53212;52.112;5.144;2023-09-19T10:48:16;100795.80;;;20.40
66403;BMP180;53212;52.112;5.144;2023-09-19T10:51:10;100794.40;;;20.54
66403;BMP180;53212;52.112;5.144;2023-09-19T10:54:11;100794.40;;;20.70
66403;BMP180;53212;52.112;5.144;2023-09-19T10:56:43;100791.40;;;20.80
66403;BMP180;53212;52.112;5.144;2023-09-19T10:59:15;100789.60;;;20.90
66403;BMP180;53212;52.112;5.144;2023-09-19T11:01:52;100778.40;;;20.90
66403;BMP180;53212;52.112;5.144;2023-09-19T11:07:09;100777.60;;;20.80
66403;BMP180;53212;52.112;5.144;2023-09-19T11:09:54;100790.40;;;20.70
66403;BMP180;53212;52.112;5.144;2023-09-19T11:15:02;100786.00;;;20.50
66403;BMP180;53212;52.112;5.144;2023-09-19T11:17:37;100784.80;;;20.40
66403;BMP180;53212;52.112;5.144;2023-09-19T11:30:44;100775.00;;;20.20
66403;BMP180;53212;52.112;5.144;2023-09-19T11:33:26;100772.80;;;20.10
66403;BMP180;53212;52.112;5.144;2023-09-19T11:36:16;100762.40;;;20.06
66403;BMP180;53212;52.112;5.144;2023-09-19T11:49:16;100755.80;;;20.30
66403;BMP180;53212;52.112;5.144;2023-09-19T11:51:46;100753.60;;;20.50
66403;BMP180;53212;52.112;5.144;2023-09-19T11:54:14;100753.00;;;20.74
66403;BMP180;53212;52.112;5.144;2023-09-19T11:56:54;100750.60;;;20.80
66403;BMP180;53212;52.112;5.144;2023-09-19T11:59:21;100755.40;;;20.80
66403;BMP180;53212;52.112;5.144;2023-09-19T12:01:59;100754.20;;;20.60
66403;BMP180;53212;52.112;5.144;2023-09-19T12:04:39;100766.80;;;20.44
66403;BMP180;53212;52.112;5.144;2023-09-19T12:07:15;100767.00;;;20.30
66403;BMP180;53212;52.112;5.144;2023-09-19T12:10:05;100766.80;;;20.10
66403;BMP180;53212;52.112;5.144;2023-09-19T12:12:31;100760.60;;;20.00
66403;BMP180;53212;52.112;5.144;2023-09-19T12:14:58;100771.80;;;19.90
66403;BMP180;53212;52.112;5.144;2023-09-19T12:17:46;100765.60;;;19.80
66403;BMP180;53212;52.112;5.144;2023-09-19T12:20:10;100764.20;;;19.60
66403;BMP180;53212;52.112;5.144;2023-09-19T12:22:40;100766.60;;;19.50
66403;BMP180;53212;52.112;5.144;2023-09-19T12:25:06;100763.80;;;19.50
66403;BMP180;53212;52.112;5.144;2023-09-19T12:27:45;100766.00;;;19.50
66403;BMP180;53212;52.112;5.144;2023-09-19T12:30:18;100762.40;;;19.56
66403;BMP180;53212;52.112;5.144;2023-09-19T12:32:46;100755.20;;;19.50
66403;BMP180;53212;52.112;5.144;2023-09-19T12:35:28;100768.40;;;19.48
66403;BMP180;53212;52.112;5.144;2023-09-19T12:37:55;100765.60;;;19.40
66403;BMP180;53212;52.112;5.144;2023-09-19T12:40:22;100767.80;;;19.40
66403;BMP180;53212;52.112;5.144;2023-09-19T12:42:54;100767.60;;;19.60
66403;BMP180;53212;52.112;5.144;2023-09-19T12:45:30;100763.60;;;19.90
66403;BMP180;53212;52.112;5.144;2023-09-19T12:48:19;100746.80;;;20.10
66403;BMP180;53212;52.112;5.144;2023-09-19T12:51:12;100774.40;;;20.30
66403;BMP180;53212;52.112;5.144;2023-09-19T12:53:46;100771.40;;;20.30
66403;BMP180;53212;52.112;5.144;2023-09-19T12:56:17;100762.00;;;20.28
66403;BMP180;53212;52.112;5.144;2023-09-19T13:01:16;100778.00;;;20.12
66403;BMP180;53212;52.112;5.144;2023-09-19T13:03:42;100768.80;;;20.20
66403;BMP180;53212;52.112;5.144;2023-09-19T13:06:07;100781.00;;;20.22
66403;BMP180;53212;52.112;5.144;2023-09-19T13:08:40;100785.20;;;20.06
66403;BMP180;53212;52.112;5.144;2023-09-19T13:11:17;100780.00;;;20.00
66403;BMP180;53212;52.112;5.144;2023-09-19T13:19:39;100772.20;;;20.46
66403;BMP180;53212;52.112;5.144;2023-09-19T13:25:06;100770.60;;;20.60
66403;BMP180;53212;52.112;5.144;2023-09-19T13:27:32;100763.00;;;20.60
66403;BMP180;53212;52.112;5.144;2023-09-19T13:29:58;100758.00;;;20.60
66403;BMP180;53212;52.112;5.144;2023-09-19T13:32:24;100768.20;;;20.50
66403;BMP180;53212;52.112;5.144;2023-09-19T13:34:49;100772.60;;;20.40
66403;BMP180;53212;52.112;5.144;2023-09-19T13:37:16;100770.40;;;20.30
66403;BMP180;53212;52.112;5.144;2023-09-19T13:39:43;100767.40;;;20.20
66403;BMP180;53212;52.112;5.144;2023-09-19T13:42:13;100760.80;;;20.20
66403;BMP180;53212;52.112;5.144;2023-09-19T13:44:39;100754.60;;;20.02
66403;BMP180;53212;52.112;5.144;2023-09-19T13:47:06;100753.40;;;19.90
66403;BMP180;53212;52.112;5.144;2023-09-19T13:49:35;100750.60;;;19.78
66403;BMP180;53212;52.112;5.144;2023-09-19T13:52:02;100756.20;;;19.60
66403;BMP180;53212;52.112;5.144;2023-09-19T13:54:30;100745.20;;;19.60
66403;BMP180;53212;52.112;5.144;2023-09-19T13:56:55;100739.00;;;19.70
66403;BMP180;53212;52.112;5.144;2023-09-19T13:59:21;100740.40;;;19.70
66403;BMP180;53212;52.112;5.144;2023-09-19T14:01:51;100748.60;;;19.70
66403;BMP180;53212;52.112;5.144;2023-09-19T14:04:19;100743.60;;;19.60
66403;BMP180;53212;52.112;5.144;2023-09-19T14:06:46;100742.80;;;19.60
66403;BMP180;53212;52.112;5.144;2023-09-19T14:09:11;100745.80;;;19.60
66403;BMP180;53212;52.112;5.144;2023-09-19T14:11:39;100760.00;;;19.50
66403;BMP180;53212;52.112;5.144;2023-09-19T14:14:05;100772.00;;;19.50
66403;BMP180;53212;52.112;5.144;2023-09-19T14:16:31;100763.00;;;19.40
66403;BMP180;53212;52.112;5.144;2023-09-19T14:18:59;100765.20;;;19.40
66403;BMP180;53212;52.112;5.144;2023-09-19T14:21:26;100747.20;;;19.40
66403;BMP180;53212;52.112;5.144;2023-09-19T14:23:51;100749.40;;;19.46
66403;BMP180;53212;52.112;5.144;2023-09-19T14:26:16;100748.80;;;19.50
66403;BMP180;53212;52.112;5.144;2023-09-19T14:28:43;100754.20;;;19.50
66403;BMP180;53212;52.112;5.144;2023-09-19T14:31:11;100744.20;;;19.52
66403;BMP180;53212;52.112;5.144;2023-09-19T14:33:37;100749.00;;;19.54
66403;BMP180;53212;52.112;5.144;2023-09-19T14:36:08;100746.20;;;19.50
66403;BMP180;53212;52.112;5.144;2023-09-19T14:38:35;100750.20;;;19.46
66403;BMP180;53212;52.112;5.144;2023-09-19T14:41:03;100756.00;;;19.40
66403;BMP180;53212;52.112;5.144;2023-09-19T14:43:28;100767.00;;;19.30
66403;BMP180;53212;52.112;5.144;2023-09-19T14:46:07;100761.00;;;19.20
66403;BMP180;53212;52.112;5.144;2023-09-19T14:48:33;100766.80;;;19.10
66403;BMP180;53212;52.112;5.144;2023-09-19T14:51:07;100765.00;;;19.10
66403;BMP180;53212;52.112;5.144;2023-09-19T14:53:37;100767.80;;;19.00
66403;BMP180;53212;52.112;5.144;2023-09-19T14:56:08;100771.80;;;19.02
66403;BMP180;53212;52.112;5.144;2023-09-19T14:58:34;100770.00;;;19.00
66403;BMP180;53212;52.112;5.144;2023-09-19T15:01:12;100772.00;;;19.10
66403;BMP180;53212;52.112;5.144;2023-09-19T15:03:40;100763.80;;;19.10
66403;BMP180;53212;52.112;5.144;2023-09-19T15:06:08;100762.00;;;19.10